createdAt,value
2018-10-04T00:01:39.663Z,58.62
2018-10-04T00:04:08.309Z,58.42
2018-10-04T00:06:36.873Z,56.37
2018-10-04T00:09:06.429Z,57.39
2018-10-04T00:11:35.065Z,56.46
2018-10-04T00:14:03.742Z,56.31
2018-10-04T00:16:32.297Z,56.01
2018-10-04T00:27:39.484Z,55.74
2018-10-04T00:30:22.387Z,55.60
2018-10-04T00:32:50.749Z,55.17
2018-10-04T00:35:19.100Z,56.42
2018-10-04T00:37:47.480Z,56.23
2018-10-04T00:40:15.860Z,56.37
2018-10-04T00:42:44.250Z,56.94
2018-10-04T00:45:12.600Z,56.82
2018-10-04T00:47:41.025Z,57.03
2018-10-04T00:53:20.178Z,55.19
2018-10-04T00:55:48.520Z,54.69
2018-10-04T01:01:21.322Z,55.65
2018-10-04T01:03:51.796Z,54.54
2018-10-04T01:06:20.194Z,55.73
2018-10-04T01:08:48.600Z,57.68
2018-10-04T01:11:16.967Z,57.64
2018-10-04T01:13:56.501Z,57.02
2018-10-04T01:16:24.859Z,56.58
2018-10-04T01:18:57.695Z,56.03
2018-10-04T01:21:38.783Z,55.52
2018-10-04T01:24:07.199Z,55.54
2018-10-04T01:26:35.609Z,55.90
2018-10-04T01:29:03.954Z,55.70
2018-10-04T01:31:32.461Z,55.70
2018-10-04T01:34:00.760Z,54.88
2018-10-04T01:36:29.085Z,55.09
2018-10-04T01:38:57.562Z,55.55
2018-10-04T01:41:26.078Z,55.80
2018-10-04T01:43:54.463Z,55.88
2018-10-04T01:46:22.878Z,58.01
2018-10-04T01:54:43.757Z,54.24
2018-10-04T01:57:12.084Z,54.62
2018-10-04T01:59:40.439Z,54.78
2018-10-04T02:02:08.780Z,54.65
2018-10-04T02:04:37.244Z,54.13
2018-10-04T02:07:05.642Z,53.58
2018-10-04T02:09:33.932Z,53.96
2018-10-04T02:12:03.441Z,53.58
2018-10-04T02:14:31.780Z,54.32
2018-10-04T02:17:00.154Z,53.43
2018-10-04T02:19:28.513Z,54.39
2018-10-04T02:21:56.895Z,54.60
2018-10-04T02:24:25.328Z,55.49
2018-10-04T02:26:53.706Z,54.96
2018-10-04T02:29:22.061Z,53.98
2018-10-04T02:31:50.459Z,53.99
2018-10-04T02:34:18.753Z,54.80
2018-10-04T02:37:00.484Z,54.07
2018-10-04T02:39:28.826Z,53.28
2018-10-04T02:41:57.246Z,54.68
2018-10-04T02:44:32.124Z,54.17
2018-10-04T02:47:00.539Z,53.71
2018-10-04T02:49:28.873Z,54.22
2018-10-04T02:54:56.162Z,53.66
2018-10-04T02:57:24.468Z,53.61
2018-10-04T02:59:52.804Z,53.91
2018-10-04T03:05:16.790Z,53.33
2018-10-04T03:07:45.208Z,54.77
2018-10-04T03:10:13.643Z,54.51
2018-10-04T03:12:42.030Z,54.29
2018-10-04T03:15:10.344Z,54.00
2018-10-04T03:17:38.662Z,53.65
2018-10-04T03:20:07.002Z,53.17
2018-10-04T03:22:35.463Z,53.90
2018-10-04T03:25:03.944Z,54.21
2018-10-04T03:27:32.414Z,54.15
2018-10-04T03:30:01.003Z,53.61
2018-10-04T03:32:29.469Z,53.90
2018-10-04T03:34:57.923Z,55.05
2018-10-04T03:37:26.310Z,54.63
2018-10-04T03:39:54.727Z,53.68
2018-10-04T03:42:23.147Z,55.92
2018-10-04T03:44:51.585Z,54.85
2018-10-04T03:47:20.036Z,54.59
2018-10-04T03:49:48.572Z,55.59
2018-10-04T03:52:40.996Z,57.26
2018-10-04T03:55:09.351Z,57.01
2018-10-04T03:57:37.776Z,55.89
2018-10-04T04:00:06.185Z,56.33
2018-10-04T04:02:34.567Z,56.06
2018-10-04T04:05:02.937Z,55.43
2018-10-04T04:07:33.310Z,56.95
2018-10-04T04:10:01.678Z,56.35
2018-10-04T04:12:30.086Z,57.83
2018-10-04T04:14:58.628Z,57.00
2018-10-04T04:17:27.123Z,57.51
2018-10-04T04:19:55.655Z,57.42
2018-10-04T04:22:24.396Z,57.39
2018-10-04T04:25:00.655Z,57.73
2018-10-04T04:27:29.035Z,56.94
2018-10-04T04:29:57.536Z,57.01
2018-10-04T04:32:25.993Z,56.46
2018-10-04T04:34:54.399Z,57.30
2018-10-04T04:37:22.728Z,55.16
2018-10-04T04:39:53.068Z,54.72
2018-10-04T04:42:21.478Z,54.16
2018-10-04T04:44:49.853Z,54.38
2018-10-04T04:47:18.300Z,55.06
2018-10-04T04:49:46.665Z,55.93
2018-10-04T04:52:26.729Z,54.25
2018-10-04T04:55:30.728Z,57.13
2018-10-04T04:58:00.101Z,55.45
2018-10-04T05:00:30.009Z,56.06
2018-10-04T05:03:01.873Z,55.37
2018-10-04T05:05:30.900Z,54.44
2018-10-04T05:08:00.683Z,54.93
2018-10-04T05:10:30.087Z,54.52
2018-10-04T05:13:16.838Z,53.25
2018-10-04T05:15:45.444Z,53.45
2018-10-04T05:18:15.248Z,52.62
2018-10-04T05:20:59.578Z,53.18
2018-10-04T05:23:40.193Z,54.19
2018-10-04T05:26:12.457Z,53.77
2018-10-04T05:28:51.010Z,54.50
2018-10-04T05:31:26.548Z,54.40
2018-10-04T05:33:57.476Z,53.79
2018-10-04T05:36:27.241Z,53.43
2018-10-04T05:39:13.182Z,52.35
2018-10-04T05:41:41.969Z,53.07
2018-10-04T05:44:10.889Z,54.46
2018-10-04T05:46:39.842Z,54.35
2018-10-04T05:49:08.833Z,54.81
2018-10-04T05:51:37.618Z,56.88
2018-10-04T05:54:06.421Z,56.74
2018-10-04T05:56:49.361Z,54.81
2018-10-04T05:59:18.456Z,54.80
2018-10-04T06:01:47.386Z,56.21
2018-10-04T06:04:16.193Z,56.55
2018-10-04T06:06:44.994Z,56.26
2018-10-04T06:09:13.828Z,58.48
2018-10-04T06:14:47.997Z,57.42
2018-10-04T06:17:17.200Z,58.50
2018-10-04T06:19:45.767Z,57.28
2018-10-04T06:22:14.953Z,58.37
2018-10-04T06:24:43.957Z,57.70
2018-10-04T06:27:12.754Z,58.26
2018-10-04T06:29:41.452Z,57.92
2018-10-04T06:32:10.499Z,56.67
2018-10-04T06:34:39.214Z,55.71
2018-10-04T06:37:07.872Z,56.75
2018-10-04T06:39:37.822Z,58.47
2018-10-04T06:42:06.587Z,57.36
2018-10-04T06:44:35.104Z,56.11
2018-10-04T06:47:04.545Z,57.28
2018-10-04T06:49:33.254Z,56.39
2018-10-04T06:52:02.077Z,57.68
2018-10-04T06:54:30.855Z,57.51
2018-10-04T06:56:59.663Z,57.72
2018-10-04T06:59:28.651Z,57.32
2018-10-04T07:01:57.450Z,56.77
2018-10-04T07:04:26.746Z,57.71
2018-10-04T07:09:53.733Z,58.86
2018-10-04T07:12:22.431Z,57.49
2018-10-04T07:14:54.680Z,57.36
2018-10-04T07:17:23.665Z,57.24
2018-10-04T07:19:52.706Z,56.06
2018-10-04T07:25:13.996Z,55.55
2018-10-04T07:27:42.645Z,56.40
2018-10-04T07:30:11.469Z,55.48
2018-10-04T07:32:41.203Z,53.64
2018-10-04T07:35:22.748Z,53.25
2018-10-04T07:37:51.666Z,51.83
2018-10-04T07:40:20.353Z,50.56
2018-10-04T07:42:49.156Z,51.50
2018-10-04T07:45:23.262Z,51.01
2018-10-04T07:47:52.573Z,50.81
2018-10-04T07:50:21.262Z,52.05
2018-10-04T07:52:49.922Z,50.01
2018-10-04T07:55:18.493Z,49.57
2018-10-04T07:57:47.386Z,50.06
2018-10-04T08:00:21.674Z,49.27
2018-10-04T08:02:50.767Z,49.89
2018-10-04T08:05:19.615Z,50.09
2018-10-04T08:07:49.585Z,54.79
2018-10-04T08:10:18.908Z,54.54
2018-10-04T08:12:53.734Z,55.94
2018-10-04T08:15:31.961Z,55.32
2018-10-04T08:21:10.532Z,54.10
2018-10-04T08:23:44.512Z,52.39
2018-10-04T08:26:16.103Z,51.10
2018-10-04T08:28:45.338Z,52.68
2018-10-04T08:31:14.570Z,53.65
2018-10-04T08:33:43.248Z,51.59
2018-10-04T08:36:11.828Z,51.44
2018-10-04T08:38:42.797Z,51.74
2018-10-04T08:41:14.805Z,50.17
2018-10-04T08:43:43.518Z,49.62
2018-10-04T08:46:12.794Z,48.09
2018-10-04T08:48:41.858Z,49.67
2018-10-04T08:51:10.497Z,49.67
2018-10-04T08:53:39.149Z,47.86
2018-10-04T08:56:08.383Z,48.32
2018-10-04T08:58:37.208Z,51.20
2018-10-04T09:01:05.950Z,51.12
2018-10-04T09:03:34.636Z,48.80
2018-10-04T09:06:03.243Z,49.26
2018-10-04T09:08:31.787Z,49.63
2018-10-04T09:11:00.657Z,49.80
2018-10-04T09:13:29.344Z,48.17
2018-10-04T09:16:15.596Z,47.87
2018-10-04T09:18:44.157Z,47.86
2018-10-04T09:21:12.504Z,48.50
2018-10-04T09:23:40.930Z,47.49
2018-10-04T09:26:09.294Z,47.08
2018-10-04T09:28:38.001Z,45.56
2018-10-04T09:31:11.551Z,44.16
2018-10-04T09:33:39.933Z,43.56
2018-10-04T09:36:08.223Z,43.62
2018-10-04T09:38:36.510Z,43.90
2018-10-04T09:41:04.917Z,41.84
2018-10-04T09:43:33.145Z,43.61
2018-10-04T09:46:01.458Z,44.11
2018-10-04T09:48:29.946Z,44.71
2018-10-04T09:51:02.404Z,45.47
2018-10-04T09:53:30.904Z,41.57
2018-10-04T09:56:04.745Z,39.81
2018-10-04T09:58:33.017Z,40.14
2018-10-04T10:01:06.724Z,41.14
2018-10-04T10:03:35.148Z,40.73
2018-10-04T10:06:03.467Z,40.92
2018-10-04T10:08:31.810Z,40.11
2018-10-04T10:11:00.147Z,39.45
2018-10-04T10:13:28.483Z,37.52
2018-10-04T10:15:56.751Z,39.24
2018-10-04T10:18:25.664Z,37.98
2018-10-04T10:20:54.033Z,38.48
2018-10-04T10:23:22.327Z,37.09
2018-10-04T10:25:51.013Z,37.77
2018-10-04T10:28:19.449Z,37.24
2018-10-04T10:30:47.781Z,37.90
2018-10-04T10:33:16.067Z,36.87
2018-10-04T10:35:44.651Z,36.03
2018-10-04T10:38:12.928Z,35.79
2018-10-04T10:40:41.450Z,35.08
2018-10-04T10:43:09.877Z,35.31
2018-10-04T10:45:38.159Z,35.95
2018-10-04T10:48:06.715Z,34.74
2018-10-04T10:50:35.029Z,34.42
2018-10-04T10:53:03.554Z,33.65
2018-10-04T10:55:31.851Z,33.58
2018-10-04T10:58:00.179Z,34.35
2018-10-04T11:00:29.137Z,33.51
2018-10-04T11:02:57.490Z,33.12
2018-10-04T11:05:25.840Z,33.61
2018-10-04T11:07:54.299Z,32.82
2018-10-04T11:10:22.635Z,33.40
2018-10-04T11:12:50.933Z,33.46
2018-10-04T11:15:19.384Z,32.10
2018-10-04T11:17:47.743Z,32.17
2018-10-04T11:20:15.982Z,32.40
2018-10-04T11:22:44.511Z,30.48
2018-10-04T11:25:13.011Z,32.36
2018-10-04T11:27:41.255Z,29.35
2018-10-04T11:30:10.199Z,28.10
2018-10-04T11:32:39.712Z,27.88
2018-10-04T11:35:09.560Z,27.53
2018-10-04T11:37:37.835Z,26.54
2018-10-04T11:40:06.141Z,24.65
2018-10-04T11:42:34.468Z,24.90
2018-10-04T11:45:06.377Z,23.92
2018-10-04T11:47:40.017Z,25.51
2018-10-04T11:50:08.786Z,24.77
2018-10-04T11:52:37.445Z,23.22
2018-10-04T11:55:07.149Z,23.20
2018-10-04T11:57:35.489Z,22.60
2018-10-04T12:00:03.925Z,19.95
2018-10-04T12:02:34.954Z,22.97
2018-10-04T12:05:04.256Z,20.38
2018-10-04T12:07:32.716Z,17.89
2018-10-04T12:10:01.318Z,17.16
2018-10-04T12:12:29.670Z,16.07
2018-10-04T12:14:57.943Z,16.78
2018-10-04T12:17:26.528Z,15.98
2018-10-04T12:19:54.886Z,14.15
2018-10-04T12:22:23.428Z,14.58
2018-10-04T12:24:51.814Z,14.03
2018-10-04T12:27:20.126Z,11.98
2018-10-04T12:29:48.530Z,12.39
2018-10-04T12:32:16.905Z,12.42
2018-10-04T12:34:45.220Z,13.44
2018-10-04T12:37:13.842Z,13.07
2018-10-04T12:39:42.300Z,11.78
2018-10-04T12:42:10.599Z,11.83
2018-10-04T12:44:39.066Z,11.17
2018-10-04T12:47:07.370Z,10.33
2018-10-04T12:49:35.875Z,10.62
2018-10-04T12:52:05.173Z,11.59
2018-10-04T12:54:33.481Z,11.11
2018-10-04T12:57:01.835Z,11.08
2018-10-04T12:59:30.207Z,10.80
2018-10-04T13:01:58.575Z,10.54
2018-10-04T13:04:27.038Z,10.27
2018-10-04T13:06:55.567Z,10.19
2018-10-04T13:09:23.822Z,10.21
2018-10-04T13:11:52.199Z,9.97
2018-10-04T13:14:20.717Z,9.26
2018-10-04T13:16:49.028Z,9.25
2018-10-04T13:19:17.506Z,8.64
2018-10-04T13:21:45.853Z,8.68
2018-10-04T13:24:14.192Z,9.53
2018-10-04T13:26:42.499Z,9.01
2018-10-04T13:29:10.812Z,9.47
2018-10-04T13:31:39.922Z,9.64
2018-10-04T13:34:08.317Z,10.76
2018-10-04T13:36:36.754Z,10.52
2018-10-04T13:39:07.884Z,10.66
2018-10-04T13:41:36.277Z,9.65
2018-10-04T13:44:04.528Z,9.37
2018-10-04T13:46:32.857Z,9.07
2018-10-04T13:49:01.119Z,9.03
2018-10-04T13:51:29.501Z,8.74
2018-10-04T13:53:57.932Z,7.88
2018-10-04T13:56:26.742Z,8.10
2018-10-04T13:58:55.389Z,8.35
2018-10-04T14:01:23.898Z,8.54
2018-10-04T14:03:52.190Z,10.03
2018-10-04T14:06:20.522Z,8.09
2018-10-04T14:08:48.917Z,8.60
2018-10-04T14:11:17.226Z,7.38
2018-10-04T14:13:45.506Z,8.28
2018-10-04T14:16:13.914Z,8.02
2018-10-04T14:18:42.204Z,7.77
2018-10-04T14:21:10.542Z,7.64
2018-10-04T14:23:38.794Z,7.70
2018-10-04T14:26:07.128Z,8.61
2018-10-04T14:28:35.549Z,8.38
2018-10-04T14:31:03.864Z,9.28
2018-10-04T14:33:32.182Z,8.50
2018-10-04T14:36:00.520Z,9.38
2018-10-04T14:38:29.465Z,8.14
2018-10-04T14:40:57.961Z,8.55
2018-10-04T14:43:26.826Z,7.71
2018-10-04T14:45:55.177Z,8.43
2018-10-04T14:48:23.714Z,8.77
2018-10-04T14:50:52.004Z,8.38
2018-10-04T14:53:20.313Z,8.81
2018-10-04T14:55:48.682Z,7.94
2018-10-04T14:58:17.045Z,9.00
2018-10-04T15:00:45.356Z,9.03
2018-10-04T15:03:13.691Z,8.32
2018-10-04T15:05:42.025Z,9.20
2018-10-04T15:08:10.312Z,9.00
2018-10-04T15:10:38.699Z,9.85
2018-10-04T15:13:07.088Z,8.99
2018-10-04T15:15:35.416Z,10.03
2018-10-04T15:18:03.796Z,10.60
2018-10-04T15:20:32.303Z,9.76
2018-10-04T15:23:00.681Z,9.38
2018-10-04T15:25:29.004Z,10.53
2018-10-04T15:27:57.325Z,10.05
2018-10-04T15:30:25.622Z,10.33
2018-10-04T15:32:53.974Z,10.46
2018-10-04T15:35:22.257Z,11.01
2018-10-04T15:37:50.874Z,11.34
2018-10-04T15:40:19.093Z,10.85
2018-10-04T15:42:47.386Z,10.73
2018-10-04T15:45:15.819Z,11.23
2018-10-04T15:47:44.114Z,11.74
2018-10-04T15:50:12.406Z,11.98
2018-10-04T15:52:40.737Z,12.98
2018-10-04T15:55:09.415Z,14.00
2018-10-04T15:57:37.756Z,16.21
2018-10-04T16:00:06.107Z,16.54
2018-10-04T16:02:34.531Z,17.98
2018-10-04T16:05:02.846Z,18.15
2018-10-04T16:07:31.129Z,19.03
2018-10-04T16:09:59.532Z,19.70
2018-10-04T16:12:27.885Z,20.01
2018-10-04T16:14:56.275Z,19.03
2018-10-04T16:17:24.634Z,18.30
2018-10-04T16:19:53.153Z,17.07
2018-10-04T16:22:21.446Z,18.03
2018-10-04T16:24:49.797Z,18.88
2018-10-04T16:27:23.388Z,20.39
2018-10-04T16:29:51.675Z,21.15
2018-10-04T16:32:19.969Z,22.70
2018-10-04T16:34:48.222Z,23.11
2018-10-04T16:37:16.540Z,24.39
2018-10-04T16:39:44.908Z,25.29
2018-10-04T16:42:13.333Z,25.16
2018-10-04T16:44:41.627Z,26.04
2018-10-04T16:47:10.383Z,27.25
2018-10-04T16:49:38.726Z,24.95
2018-10-04T16:52:07.250Z,25.51
2018-10-04T16:54:35.553Z,26.74
2018-10-04T16:57:04.145Z,25.95
2018-10-04T16:59:32.607Z,26.26
2018-10-04T17:02:01.215Z,26.81
2018-10-04T17:04:29.644Z,26.67
2018-10-04T17:06:57.924Z,27.10
2018-10-04T17:09:26.695Z,27.64
2018-10-04T17:11:55.052Z,31.01
2018-10-04T17:14:23.526Z,27.18
2018-10-04T17:16:51.970Z,29.11
2018-10-04T17:19:20.334Z,28.12
2018-10-04T17:21:48.932Z,28.64
2018-10-04T17:24:17.372Z,28.93
2018-10-04T17:26:45.755Z,29.57
2018-10-04T17:29:14.257Z,28.97
2018-10-04T17:31:43.181Z,30.08
2018-10-04T17:34:11.795Z,29.84
2018-10-04T17:36:40.752Z,30.27
2018-10-04T17:39:09.831Z,30.02
2018-10-04T17:41:39.631Z,29.86
2018-10-04T17:44:09.054Z,30.09
2018-10-04T17:46:37.792Z,29.94
2018-10-04T17:49:06.973Z,30.88
2018-10-04T17:51:35.350Z,30.72
2018-10-04T17:54:03.781Z,30.90
2018-10-04T17:56:32.117Z,31.75
2018-10-04T17:59:00.987Z,32.17
2018-10-04T18:01:29.680Z,32.12
2018-10-04T18:03:58.295Z,32.07
2018-10-04T18:06:26.823Z,33.22
2018-10-04T18:08:55.257Z,32.87
2018-10-04T18:11:23.606Z,34.20
2018-10-04T18:13:52.354Z,33.96
2018-10-04T18:16:20.851Z,35.08
2018-10-04T18:18:49.296Z,35.19
2018-10-04T18:21:17.757Z,35.40
2018-10-04T18:23:46.867Z,35.67
2018-10-04T18:26:15.422Z,35.94
2018-10-04T18:28:44.002Z,36.38
2018-10-04T18:31:12.291Z,36.54
2018-10-04T18:33:40.865Z,36.50
2018-10-04T18:36:10.456Z,37.11
2018-10-04T18:38:38.912Z,37.51
2018-10-04T18:41:07.448Z,37.31
2018-10-04T18:43:35.873Z,38.20
2018-10-04T18:46:05.404Z,37.44
2018-10-04T18:48:33.954Z,38.09
2018-10-04T18:51:02.435Z,37.89
2018-10-04T18:53:30.840Z,39.17
2018-10-04T18:55:59.139Z,39.73
2018-10-04T19:01:10.834Z,39.68
2018-10-04T19:03:39.175Z,38.95
2018-10-04T19:06:07.700Z,39.52
2018-10-04T19:08:36.670Z,39.86
2018-10-04T19:11:05.252Z,40.29
2018-10-04T19:13:34.016Z,41.17
2018-10-04T19:16:02.991Z,41.36
2018-10-04T19:18:31.599Z,41.23
2018-10-04T19:21:00.531Z,41.77
2018-10-04T19:23:29.432Z,41.44
2018-10-04T19:25:59.032Z,41.86
2018-10-04T19:28:27.739Z,41.09
2018-10-04T19:30:56.051Z,41.35
2018-10-04T19:33:24.537Z,41.34
2018-10-04T19:35:52.988Z,41.21
2018-10-04T19:38:21.561Z,40.77
2018-10-04T19:40:50.011Z,40.69
2018-10-04T19:43:18.482Z,41.08
2018-10-04T19:45:46.784Z,41.12
2018-10-04T19:48:15.174Z,41.78
2018-10-04T19:50:43.630Z,41.47
2018-10-04T19:53:12.170Z,41.67
2018-10-04T19:55:40.487Z,41.32
2018-10-04T19:58:08.888Z,41.79
2018-10-04T20:00:37.201Z,41.67
2018-10-04T20:03:05.864Z,42.30
2018-10-04T20:05:34.091Z,42.26
2018-10-04T20:08:02.577Z,42.48
2018-10-04T20:10:31.466Z,42.41
2018-10-04T20:13:00.179Z,43.06
2018-10-04T20:15:28.768Z,42.36
2018-10-04T20:17:57.660Z,42.40
2018-10-04T20:20:26.262Z,43.55
2018-10-04T20:22:54.691Z,43.31
2018-10-04T20:25:23.056Z,43.68
2018-10-04T20:27:51.415Z,43.60
2018-10-04T20:30:19.896Z,42.82
2018-10-04T20:32:48.351Z,42.91
2018-10-04T20:35:16.821Z,43.36
2018-10-04T20:37:45.645Z,43.56
2018-10-04T20:40:13.937Z,43.98
2018-10-04T20:42:42.281Z,43.69
2018-10-04T20:45:10.777Z,43.92
2018-10-04T20:47:39.104Z,44.26
2018-10-04T20:50:07.517Z,44.86
2018-10-04T20:52:35.986Z,45.47
2018-10-04T20:55:04.406Z,45.39
2018-10-04T20:57:32.741Z,45.19
2018-10-04T21:00:01.166Z,45.49
2018-10-04T21:02:29.424Z,45.97
2018-10-04T21:04:57.781Z,45.44
2018-10-04T21:07:26.175Z,44.95
2018-10-04T21:09:54.773Z,45.03
2018-10-04T21:12:23.255Z,45.12
2018-10-04T21:14:51.690Z,45.46
2018-10-04T21:17:20.084Z,45.36
2018-10-04T21:19:48.409Z,45.28
2018-10-04T21:22:16.857Z,45.33
2018-10-04T21:24:45.114Z,45.48
2018-10-04T21:27:13.393Z,46.17
2018-10-04T21:29:41.824Z,45.94
2018-10-04T21:32:10.332Z,46.10
2018-10-04T21:34:38.668Z,46.59
2018-10-04T21:37:07.064Z,46.62
2018-10-04T21:39:35.421Z,47.69
2018-10-04T21:42:03.832Z,47.29
2018-10-04T21:44:32.575Z,47.33
2018-10-04T21:47:01.110Z,47.17
2018-10-04T21:49:29.557Z,46.88
2018-10-04T21:51:57.908Z,47.38
2018-10-04T21:54:26.319Z,47.15
2018-10-04T21:56:54.609Z,47.38
2018-10-04T21:59:22.996Z,47.94
2018-10-04T22:01:51.338Z,47.94
2018-10-04T22:04:21.771Z,48.44
2018-10-04T22:06:50.843Z,48.23
2018-10-04T22:09:19.405Z,47.76
2018-10-04T22:11:47.764Z,48.45
2018-10-04T22:14:16.240Z,48.32
2018-10-04T22:16:44.544Z,48.26
2018-10-04T22:19:12.981Z,48.62
2018-10-04T22:21:41.372Z,47.76
2018-10-04T22:24:09.726Z,48.09
2018-10-04T22:26:38.169Z,48.12
2018-10-04T22:29:06.585Z,48.74
2018-10-04T22:31:34.998Z,48.83
2018-10-04T22:34:03.315Z,48.53
2018-10-04T22:36:31.692Z,48.58
2018-10-04T22:39:00.093Z,48.11
2018-10-04T22:41:28.588Z,48.08
2018-10-04T22:43:56.927Z,47.80
2018-10-04T22:46:25.281Z,48.01
2018-10-04T22:48:53.700Z,48.60
2018-10-04T22:51:22.042Z,49.08
2018-10-04T22:53:50.395Z,49.25
2018-10-04T22:56:18.731Z,49.10
2018-10-04T22:58:47.129Z,48.80
2018-10-04T23:01:15.629Z,49.05
2018-10-04T23:03:44.084Z,49.06
2018-10-04T23:06:12.386Z,49.54
2018-10-04T23:08:40.737Z,50.33
2018-10-04T23:11:09.102Z,49.44
2018-10-04T23:13:37.420Z,49.46
2018-10-04T23:16:08.530Z,49.12
2018-10-04T23:18:36.777Z,49.57
2018-10-04T23:21:05.132Z,49.23
2018-10-04T23:23:33.428Z,49.82
2018-10-04T23:26:01.825Z,49.96
2018-10-04T23:28:30.107Z,49.73
2018-10-04T23:30:59.217Z,50.43
2018-10-04T23:33:27.493Z,50.52
2018-10-04T23:35:55.956Z,50.73
2018-10-04T23:38:24.207Z,50.50
2018-10-04T23:40:52.644Z,50.51
2018-10-04T23:43:21.016Z,51.63
2018-10-04T23:45:49.326Z,51.46
2018-10-04T23:48:17.627Z,51.94
2018-10-04T23:50:46.007Z,52.40
2018-10-04T23:53:14.369Z,51.20
2018-10-04T23:55:42.875Z,51.05
2018-10-04T23:58:11.170Z,51.68
